createdAt,value
2022-11-28T00:01:36.932Z,28.60
2022-11-28T00:04:06.160Z,26.70
2022-11-28T00:06:36.785Z,33.92
2022-11-28T00:09:03.958Z,26.95
2022-11-28T00:11:30.565Z,33.38
2022-11-28T00:13:57.140Z,31.55
2022-11-28T00:16:24.662Z,27.65
2022-11-28T00:18:53.725Z,26.02
2022-11-28T00:21:23.021Z,36.70
2022-11-28T00:23:50.697Z,28.48
2022-11-28T00:26:21.029Z,32.95
2022-11-28T00:28:47.953Z,27.38
2022-11-28T00:31:15.637Z,24.85
2022-11-28T00:33:42.581Z,32.97
2022-11-28T00:36:09.963Z,27.30
2022-11-28T00:38:38.047Z,24.83
2022-11-28T00:41:06.758Z,26.58
2022-11-28T00:43:34.259Z,24.05
2022-11-28T00:46:01.204Z,32.80
2022-11-28T00:48:28.235Z,32.80
2022-11-28T00:50:56.176Z,29.55
2022-11-28T00:53:22.857Z,32.33
2022-11-28T00:55:50.835Z,28.25
2022-11-28T00:58:17.414Z,26.77
2022-11-28T01:00:44.070Z,26.35
2022-11-28T01:03:10.704Z,32.50
2022-11-28T01:05:41.041Z,26.88
2022-11-28T01:08:07.763Z,27.75
2022-11-28T01:10:34.401Z,32.17
2022-11-28T01:13:02.350Z,28.38
2022-11-28T01:15:29.010Z,32.00
2022-11-28T01:17:55.623Z,32.10
2022-11-28T01:20:22.289Z,37.13
2022-11-28T01:22:48.909Z,28.05
2022-11-28T01:25:15.758Z,30.58
2022-11-28T01:27:42.409Z,26.27
2022-11-28T01:30:10.814Z,33.05
2022-11-28T01:32:37.497Z,31.98
2022-11-28T01:35:04.806Z,31.88
2022-11-28T01:37:31.642Z,32.60
2022-11-28T01:39:58.449Z,29.08
2022-11-28T01:42:25.022Z,28.70
2022-11-28T01:45:15.826Z,29.65
2022-11-28T01:47:43.660Z,33.35
2022-11-28T01:50:12.784Z,26.38
2022-11-28T01:52:43.336Z,26.63
2022-11-28T01:55:12.655Z,29.15
2022-11-28T01:57:39.625Z,29.38
2022-11-28T02:00:08.974Z,27.13
2022-11-28T02:02:39.329Z,27.33
2022-11-28T02:05:06.823Z,29.70
2022-11-28T02:07:34.437Z,29.13
2022-11-28T02:10:03.361Z,30.25
2022-11-28T02:12:45.648Z,36.33
2022-11-28T02:15:22.954Z,29.60
2022-11-28T02:18:06.807Z,26.92
2022-11-28T02:21:02.762Z,26.00
2022-11-28T02:23:51.922Z,29.88
2022-11-28T02:26:48.480Z,27.55
2022-11-28T02:29:37.439Z,23.23
2022-11-28T02:32:17.275Z,30.65
2022-11-28T02:34:54.509Z,30.13
2022-11-28T02:37:29.052Z,28.77
2022-11-28T02:40:07.301Z,26.48
2022-11-28T02:42:43.129Z,32.95
2022-11-28T02:45:15.037Z,27.27
2022-11-28T02:47:48.646Z,26.70
2022-11-28T02:50:22.364Z,27.63
2022-11-28T02:52:51.974Z,28.52
2022-11-28T02:55:19.352Z,31.70
2022-11-28T02:57:48.808Z,30.58
2022-11-28T03:00:27.726Z,29.67
2022-11-28T03:03:12.665Z,25.73
2022-11-28T03:05:46.122Z,27.88
2022-11-28T03:08:30.365Z,26.95
2022-11-28T03:11:06.193Z,26.77
2022-11-28T03:13:41.133Z,29.33
2022-11-28T03:16:17.679Z,32.28
2022-11-28T03:18:55.465Z,30.15
2022-11-28T03:21:30.540Z,27.55
2022-11-28T03:24:01.310Z,25.05
2022-11-28T03:26:38.664Z,26.35
2022-11-28T03:29:13.518Z,27.98
2022-11-28T03:31:45.859Z,26.95
2022-11-28T03:34:19.813Z,26.85
2022-11-28T03:36:51.857Z,24.27
2022-11-28T03:39:23.343Z,25.83
2022-11-28T03:41:54.106Z,24.88
2022-11-28T03:44:26.744Z,27.17
2022-11-28T03:46:57.705Z,23.03
2022-11-28T03:49:30.277Z,26.02
2022-11-28T03:52:01.467Z,25.97
2022-11-28T03:54:34.283Z,26.30
2022-11-28T03:57:07.843Z,24.20
2022-11-28T03:59:36.918Z,21.83
2022-11-28T04:02:11.213Z,26.98
2022-11-28T04:04:48.449Z,26.17
2022-11-28T04:07:24.967Z,26.17
2022-11-28T04:10:00.021Z,26.52
2022-11-28T04:12:37.565Z,24.40
2022-11-28T04:15:09.129Z,25.67
2022-11-28T04:17:39.790Z,28.02
2022-11-28T04:20:12.191Z,23.42
2022-11-28T04:22:44.564Z,27.05
2022-11-28T04:25:13.897Z,25.33
2022-11-28T04:27:46.681Z,23.17
2022-11-28T04:30:14.328Z,24.13
2022-11-28T04:32:46.697Z,33.00
2022-11-28T04:35:18.757Z,27.17
2022-11-28T04:37:48.342Z,26.45
2022-11-28T04:40:17.821Z,27.25
2022-11-28T04:42:52.844Z,26.33
2022-11-28T04:45:26.534Z,31.55
2022-11-28T04:50:23.472Z,24.05
2022-11-28T04:52:54.781Z,26.27
2022-11-28T04:55:31.241Z,27.35
2022-11-28T04:58:06.076Z,28.83
2022-11-28T05:00:34.379Z,26.83
2022-11-28T05:03:01.426Z,30.83
2022-11-28T05:05:29.492Z,26.75
2022-11-28T05:07:57.636Z,26.60
2022-11-28T05:10:24.250Z,28.85
2022-11-28T05:12:50.882Z,27.88
2022-11-28T05:15:17.601Z,22.25
2022-11-28T05:17:44.420Z,27.63
2022-11-28T05:20:11.636Z,29.13
2022-11-28T05:22:39.674Z,29.08
2022-11-28T05:25:07.051Z,24.73
2022-11-28T05:27:33.646Z,25.05
2022-11-28T05:30:00.272Z,24.75
2022-11-28T05:32:29.313Z,27.73
2022-11-28T05:34:55.939Z,25.13
2022-11-28T05:37:22.610Z,29.98
2022-11-28T05:39:50.607Z,26.90
2022-11-28T05:42:17.554Z,29.30
2022-11-28T05:44:44.119Z,31.48
2022-11-28T05:47:10.757Z,25.20
2022-11-28T05:49:37.657Z,26.98
2022-11-28T05:52:04.292Z,26.75
2022-11-28T05:54:30.839Z,24.10
2022-11-28T05:56:58.999Z,24.90
2022-11-28T05:59:25.657Z,24.08
2022-11-28T06:01:52.257Z,24.83
2022-11-28T06:04:18.982Z,25.25
2022-11-28T06:06:45.621Z,23.60
2022-11-28T06:09:12.197Z,28.02
2022-11-28T06:11:38.804Z,23.40
2022-11-28T06:14:06.773Z,24.02
2022-11-28T06:16:33.431Z,26.40
2022-11-28T06:19:01.563Z,29.45
2022-11-28T06:21:29.809Z,24.08
2022-11-28T06:23:57.227Z,22.35
2022-11-28T06:26:25.194Z,25.23
2022-11-28T06:28:52.028Z,24.00
2022-11-28T06:31:22.056Z,25.63
2022-11-28T06:33:48.931Z,23.92
2022-11-28T06:36:19.364Z,29.70
2022-11-28T06:38:46.512Z,22.33
2022-11-28T06:41:16.208Z,29.70
2022-11-28T06:43:43.152Z,26.17
2022-11-28T06:46:15.996Z,29.23
2022-11-28T06:48:44.622Z,32.15
2022-11-28T06:51:11.988Z,24.92
2022-11-28T06:53:39.383Z,27.20
2022-11-28T06:56:07.767Z,25.15
2022-11-28T06:58:35.328Z,27.25
2022-11-28T07:01:10.575Z,28.40
2022-11-28T07:03:37.752Z,26.60
2022-11-28T07:06:07.258Z,29.60
2022-11-28T07:08:34.409Z,32.90
2022-11-28T07:11:08.263Z,31.08
2022-11-28T07:13:35.092Z,30.85
2022-11-28T07:16:01.653Z,26.73
2022-11-28T07:18:28.417Z,31.38
2022-11-28T07:20:54.986Z,29.30
2022-11-28T07:23:22.959Z,26.27
2022-11-28T07:25:49.621Z,28.95
2022-11-28T07:28:18.503Z,25.55
2022-11-28T07:30:48.616Z,30.50
2022-11-28T07:33:15.186Z,26.65
2022-11-28T07:35:41.864Z,29.92
2022-11-28T07:38:08.542Z,27.25
2022-11-28T07:40:36.522Z,30.58
2022-11-28T07:43:03.147Z,25.05
2022-11-28T07:45:47.329Z,31.02
2022-11-28T07:48:16.266Z,31.25
2022-11-28T07:50:42.899Z,26.90
2022-11-28T07:53:09.461Z,27.25
2022-11-28T07:55:37.466Z,28.45
2022-11-28T07:58:04.493Z,31.58
2022-11-28T08:00:32.116Z,31.00
2022-11-28T08:02:58.712Z,29.33
2022-11-28T08:05:25.457Z,29.42
2022-11-28T08:07:52.230Z,34.05
2022-11-28T08:10:19.178Z,31.75
2022-11-28T08:12:47.216Z,31.02
2022-11-28T08:15:13.946Z,30.83
2022-11-28T08:17:40.811Z,33.72
2022-11-28T08:20:08.707Z,32.80
2022-11-28T08:22:35.462Z,29.02
2022-11-28T08:25:02.254Z,33.47
2022-11-28T08:27:28.900Z,38.17
2022-11-28T08:29:56.971Z,34.25
2022-11-28T08:32:23.617Z,32.72
2022-11-28T08:34:50.366Z,29.75
2022-11-28T08:37:17.004Z,27.63
2022-11-28T08:39:43.914Z,35.42
2022-11-28T08:42:10.886Z,38.15
2022-11-28T08:44:37.515Z,37.40
2022-11-28T08:47:05.853Z,33.78
2022-11-28T08:49:32.541Z,30.38
2022-11-28T08:51:59.197Z,32.03
2022-11-28T08:54:26.075Z,28.30
2022-11-28T08:56:52.702Z,30.13
2022-11-28T08:59:19.543Z,37.30
2022-11-28T09:01:46.299Z,33.38
2022-11-28T09:04:14.418Z,31.27
2022-11-28T09:06:41.210Z,32.25
2022-11-28T09:09:07.938Z,31.38
2022-11-28T09:11:34.531Z,31.13
2022-11-28T09:14:01.280Z,29.40
2022-11-28T09:16:28.034Z,30.65
2022-11-28T09:18:54.754Z,31.42
2022-11-28T09:21:22.970Z,28.15
2022-11-28T09:23:49.650Z,30.77
2022-11-28T09:26:18.568Z,27.48
2022-11-28T09:28:45.665Z,29.60
2022-11-28T09:31:13.242Z,27.33
2022-11-28T09:33:40.673Z,33.42
2022-11-28T09:36:09.674Z,30.95
2022-11-28T09:38:37.939Z,30.30
2022-11-28T09:41:34.289Z,34.50
2022-11-28T09:44:08.237Z,36.90
2022-11-28T09:46:37.279Z,34.63
2022-11-28T09:49:17.883Z,31.38
2022-11-28T09:51:51.423Z,31.85
2022-11-28T09:54:23.076Z,33.05
2022-11-28T09:56:50.513Z,29.23
2022-11-28T09:59:23.261Z,27.55
2022-11-28T10:01:59.492Z,32.25
2022-11-28T10:04:37.214Z,33.88
2022-11-28T10:07:10.921Z,33.35
2022-11-28T10:09:48.996Z,33.33
2022-11-28T10:12:31.997Z,28.98
2022-11-28T10:15:13.264Z,32.13
2022-11-28T10:17:49.554Z,30.83
2022-11-28T10:20:20.896Z,32.25
2022-11-28T10:22:51.956Z,31.98
2022-11-28T10:25:24.675Z,30.55
2022-11-28T10:27:51.443Z,31.95
2022-11-28T10:30:23.924Z,30.75
2022-11-28T10:33:00.512Z,32.28
2022-11-28T10:35:35.821Z,33.83
2022-11-28T10:38:02.791Z,31.13
2022-11-28T10:40:42.733Z,37.88
2022-11-28T10:43:19.330Z,32.70
2022-11-28T10:45:52.527Z,35.38
2022-11-28T10:48:39.447Z,31.58
2022-11-28T10:51:21.302Z,35.35
2022-11-28T10:53:57.184Z,30.98
2022-11-28T10:56:35.697Z,36.38
2022-11-28T10:59:08.655Z,33.20
2022-11-28T11:01:39.650Z,30.17
2022-11-28T11:04:16.940Z,34.60
2022-11-28T11:07:06.890Z,30.63
2022-11-28T11:09:30.679Z,33.55
2022-11-28T11:11:59.418Z,32.25
2022-11-28T11:14:34.154Z,36.70
2022-11-28T11:17:00.879Z,30.00
2022-11-28T11:19:33.322Z,37.97
2022-11-28T11:22:06.152Z,34.97
2022-11-28T11:24:33.060Z,35.03
2022-11-28T11:27:07.002Z,41.08
2022-11-28T11:29:35.398Z,33.17
2022-11-28T11:32:03.778Z,34.03
2022-11-28T11:34:36.561Z,32.90
2022-11-28T11:37:30.124Z,29.85
2022-11-28T11:39:56.931Z,31.60
2022-11-28T11:42:26.711Z,32.90
2022-11-28T11:44:54.092Z,31.92
2022-11-28T11:47:40.646Z,37.58
2022-11-28T11:50:16.795Z,38.28
2022-11-28T11:52:43.668Z,32.70
2022-11-28T11:55:15.356Z,34.75
2022-11-28T11:57:48.212Z,33.17
2022-11-28T12:00:17.966Z,40.30
2022-11-28T12:02:46.869Z,32.65
2022-11-28T12:05:16.420Z,35.30
2022-11-28T12:07:56.584Z,32.47
2022-11-28T12:10:26.311Z,31.58
2022-11-28T12:12:54.583Z,32.05
2022-11-28T12:15:28.253Z,26.70
2022-11-28T12:18:06.545Z,34.40
2022-11-28T12:20:41.873Z,35.88
2022-11-28T12:23:24.975Z,38.50
2022-11-28T12:25:56.248Z,31.08
2022-11-28T12:28:36.462Z,34.30
2022-11-28T12:31:10.945Z,30.75
2022-11-28T12:33:50.925Z,31.90
2022-11-28T12:36:26.023Z,32.78
2022-11-28T12:39:00.369Z,34.00
2022-11-28T12:41:59.712Z,34.17
2022-11-28T12:44:35.875Z,32.60
2022-11-28T12:47:15.459Z,34.40
2022-11-28T12:49:50.450Z,33.33
2022-11-28T12:52:25.682Z,30.50
2022-11-28T12:55:06.960Z,30.95
2022-11-28T12:57:39.915Z,28.58
2022-11-28T13:00:15.204Z,35.15
2022-11-28T13:02:55.005Z,29.20
2022-11-28T13:05:37.712Z,31.63
2022-11-28T13:08:23.722Z,32.70
2022-11-28T13:10:55.649Z,29.42
2022-11-28T13:13:26.737Z,25.38
2022-11-28T13:16:07.426Z,31.02
2022-11-28T13:18:40.538Z,35.17
2022-11-28T13:21:23.374Z,28.33
2022-11-28T13:23:56.142Z,26.93
2022-11-28T13:26:38.405Z,29.43
2022-11-28T13:29:14.120Z,32.53
2022-11-28T13:31:49.152Z,31.13
2022-11-28T13:34:18.150Z,29.50
2022-11-28T13:39:41.955Z,28.67
2022-11-28T13:42:58.932Z,24.55
2022-11-28T13:45:25.137Z,27.98
2022-11-28T13:47:58.482Z,24.02
2022-11-28T13:50:38.303Z,29.20
2022-11-28T13:53:23.891Z,27.45
2022-11-28T13:55:52.422Z,26.45
2022-11-28T13:58:23.618Z,28.85
2022-11-28T14:01:05.422Z,30.17
2022-11-28T14:03:36.646Z,25.02
2022-11-28T14:06:07.062Z,29.30
2022-11-28T14:08:37.142Z,26.30
2022-11-28T14:11:57.491Z,29.48
2022-11-28T14:14:43.205Z,29.13
2022-11-28T14:17:25.236Z,36.60
2022-11-28T14:20:03.278Z,32.13
2022-11-28T14:22:43.063Z,32.28
2022-11-28T14:25:16.714Z,28.20
2022-11-28T14:27:49.729Z,32.75
2022-11-28T14:30:26.100Z,35.65
2022-11-28T14:32:57.355Z,40.03
2022-11-28T14:36:04.535Z,33.45
2022-11-28T14:38:42.921Z,34.55
2022-11-28T14:41:10.881Z,36.40
2022-11-28T14:43:39.206Z,36.63
2022-11-28T14:46:24.960Z,32.63
2022-11-28T14:49:24.959Z,36.05
2022-11-28T14:57:55.203Z,35.72
2022-11-28T15:00:24.624Z,37.10
2022-11-28T15:03:07.518Z,39.10
2022-11-28T15:05:39.941Z,36.75
2022-11-28T15:08:36.820Z,38.25
2022-11-28T15:11:20.797Z,38.75
2022-11-28T15:14:01.989Z,37.45
2022-11-28T15:16:30.704Z,37.97
2022-11-28T15:19:03.891Z,42.92
2022-11-28T15:21:30.677Z,38.88
2022-11-28T15:23:58.757Z,43.58
2022-11-28T15:26:29.080Z,43.25
2022-11-28T15:29:08.737Z,40.97
2022-11-28T15:31:35.574Z,44.45
2022-11-28T15:34:02.458Z,46.55
2022-11-28T15:36:30.409Z,45.38
2022-11-28T15:38:58.438Z,47.67
2022-11-28T15:41:27.217Z,44.42
2022-11-28T15:43:54.978Z,49.85
2022-11-28T15:46:29.675Z,43.55
2022-11-28T15:48:56.262Z,42.67
2022-11-28T15:51:28.102Z,51.15
2022-11-28T15:53:55.186Z,44.35
2022-11-28T15:56:23.386Z,44.33
2022-11-28T15:58:50.214Z,44.63
2022-11-28T16:01:19.015Z,48.47
2022-11-28T16:03:52.253Z,46.20
2022-11-28T16:06:20.453Z,48.58
2022-11-28T16:08:52.356Z,43.22
2022-11-28T16:11:21.845Z,46.20
2022-11-28T16:13:51.602Z,46.00
2022-11-28T16:16:21.112Z,51.40
2022-11-28T16:18:55.678Z,44.58
2022-11-28T16:21:24.923Z,48.75
2022-11-28T16:23:51.922Z,50.10
2022-11-28T16:26:24.512Z,54.95
2022-11-28T16:29:00.040Z,49.67
2022-11-28T16:31:28.081Z,44.92
2022-11-28T16:33:55.272Z,46.20
2022-11-28T16:36:24.747Z,53.22
2022-11-28T16:38:54.046Z,52.33
2022-11-28T16:41:23.216Z,49.10
2022-11-28T16:43:53.888Z,45.05
2022-11-28T16:46:23.608Z,45.35
2022-11-28T16:48:55.643Z,51.75
2022-11-28T16:51:36.586Z,46.80
2022-11-28T16:54:31.502Z,52.83
2022-11-28T16:57:08.866Z,50.70
2022-11-28T16:59:35.755Z,50.80
2022-11-28T17:02:04.123Z,50.80
2022-11-28T17:04:31.280Z,45.20
2022-11-28T17:06:59.778Z,50.90
2022-11-28T17:09:26.480Z,50.58
2022-11-28T17:11:58.303Z,50.72
2022-11-28T17:14:24.955Z,51.83
2022-11-28T17:16:51.625Z,51.47
2022-11-28T17:19:19.622Z,53.15
2022-11-28T17:21:49.581Z,49.40
2022-11-28T17:24:17.890Z,47.08
2022-11-28T17:26:44.787Z,54.13
2022-11-28T17:29:13.264Z,48.33
2022-11-28T17:31:40.039Z,59.05
2022-11-28T17:34:09.670Z,54.75
2022-11-28T17:36:37.765Z,52.70
2022-11-28T17:39:05.461Z,56.08
2022-11-28T17:41:32.102Z,52.20
2022-11-28T17:43:58.783Z,56.00
2022-11-28T17:46:25.608Z,59.85
2022-11-28T17:48:52.167Z,51.83
2022-11-28T17:51:18.739Z,54.15
2022-11-28T17:53:46.678Z,55.15
2022-11-28T17:56:13.668Z,52.60
2022-11-28T17:58:40.625Z,57.35
2022-11-28T18:01:09.752Z,57.47
2022-11-28T18:03:36.982Z,54.45
2022-11-28T18:06:03.649Z,58.65
2022-11-28T18:08:30.254Z,53.42
2022-11-28T18:11:05.855Z,57.08
2022-11-28T18:13:32.783Z,59.28
2022-11-28T18:15:59.553Z,62.15
2022-11-28T18:18:26.314Z,61.88
2022-11-28T18:20:52.930Z,53.97
2022-11-28T18:23:19.594Z,60.08
2022-11-28T18:25:46.458Z,60.28
2022-11-28T18:28:18.793Z,61.03
2022-11-28T18:30:47.138Z,58.90
2022-11-28T18:33:15.521Z,60.30
2022-11-28T18:35:42.710Z,59.28
2022-11-28T18:38:09.447Z,59.75
2022-11-28T18:40:36.754Z,67.07
2022-11-28T18:43:03.874Z,66.32
2022-11-28T18:45:32.780Z,70.70
2022-11-28T18:48:00.518Z,61.95
2022-11-28T18:50:27.490Z,72.90
2022-11-28T18:52:54.149Z,68.70
2022-11-28T18:55:20.728Z,64.78
2022-11-28T18:57:47.327Z,64.85
2022-11-28T19:00:15.135Z,64.70
2022-11-28T19:02:43.903Z,69.30
2022-11-28T19:05:10.496Z,63.63
2022-11-28T19:07:37.089Z,72.38
2022-11-28T19:10:04.149Z,67.85
2022-11-28T19:12:30.720Z,72.25
2022-11-28T19:15:02.068Z,74.00
2022-11-28T19:17:29.519Z,72.03
2022-11-28T19:19:57.515Z,63.55
2022-11-28T19:22:24.110Z,68.35
2022-11-28T19:24:50.637Z,72.53
2022-11-28T19:27:17.255Z,68.50
2022-11-28T19:29:44.350Z,70.40
2022-11-28T19:32:11.258Z,67.93
2022-11-28T19:34:37.905Z,67.53
2022-11-28T19:37:05.869Z,71.60
2022-11-28T19:39:32.473Z,71.53
2022-11-28T19:41:59.081Z,70.07
2022-11-28T19:44:25.798Z,65.88
2022-11-28T19:46:52.404Z,68.55
2022-11-28T19:49:21.337Z,73.13
2022-11-28T19:51:48.809Z,69.72
2022-11-28T19:54:17.433Z,68.63
2022-11-28T19:56:44.054Z,74.25
2022-11-28T19:59:10.769Z,73.70
2022-11-28T20:01:38.478Z,69.88
2022-11-28T20:04:05.308Z,69.97
2022-11-28T20:06:32.606Z,70.40
2022-11-28T20:09:02.226Z,68.28
2022-11-28T20:11:32.298Z,71.50
2022-11-28T20:14:01.492Z,70.72
2022-11-28T20:16:29.351Z,64.97
2022-11-28T20:18:56.141Z,71.38
2022-11-28T20:21:22.798Z,71.70
2022-11-28T20:23:51.633Z,70.00
2022-11-28T20:26:20.374Z,74.25
2022-11-28T20:28:48.881Z,71.80
2022-11-28T20:31:21.280Z,72.07
2022-11-28T20:33:48.737Z,68.60
2022-11-28T20:36:17.160Z,67.55
2022-11-28T20:38:43.887Z,67.55
2022-11-28T20:41:12.278Z,69.03
2022-11-28T20:43:39.794Z,67.78
2022-11-28T20:46:10.828Z,62.40
2022-11-28T20:48:38.413Z,64.25
2022-11-28T20:51:07.734Z,66.10
2022-11-28T20:53:34.297Z,63.28
2022-11-28T20:56:01.931Z,65.00
2022-11-28T20:58:28.841Z,71.57
2022-11-28T21:00:56.022Z,61.35
2022-11-28T21:03:24.934Z,69.22
2022-11-28T21:05:55.234Z,63.15
2022-11-28T21:08:24.514Z,69.57
2022-11-28T21:10:51.147Z,61.88
2022-11-28T21:13:17.753Z,65.43
2022-11-28T21:15:45.456Z,60.35
2022-11-28T21:18:12.542Z,66.85
2022-11-28T21:20:42.157Z,63.40
2022-11-28T21:23:09.928Z,61.08
2022-11-28T21:25:37.421Z,65.38
2022-11-28T21:28:04.593Z,66.32
2022-11-28T21:30:31.602Z,68.28
2022-11-28T21:32:58.271Z,61.42
2022-11-28T21:35:24.974Z,62.50
2022-11-28T21:37:52.948Z,61.97
2022-11-28T21:40:19.628Z,66.40
2022-11-28T21:42:46.199Z,60.45
2022-11-28T21:45:12.759Z,60.03
2022-11-28T21:47:39.316Z,61.58
2022-11-28T21:50:07.057Z,67.40
2022-11-28T21:52:33.651Z,61.38
2022-11-28T21:55:01.571Z,62.85
2022-11-28T21:57:28.146Z,59.67
2022-11-28T21:59:54.781Z,62.10
2022-11-28T22:02:24.963Z,66.90
2022-11-28T22:04:54.355Z,57.28
2022-11-28T22:07:21.092Z,61.30
2022-11-28T22:09:47.913Z,58.60
2022-11-28T22:12:15.883Z,57.92
2022-11-28T22:14:42.490Z,60.83
2022-11-28T22:17:09.153Z,63.50
2022-11-28T22:19:35.720Z,56.05
2022-11-28T22:22:02.289Z,60.85
2022-11-28T22:24:28.966Z,62.72
2022-11-28T22:26:55.548Z,62.28
2022-11-28T22:29:23.715Z,62.00
2022-11-28T22:31:50.315Z,65.20
2022-11-28T22:34:16.970Z,59.45
2022-11-28T22:36:43.575Z,65.10
2022-11-28T22:39:10.680Z,57.97
2022-11-28T22:41:37.309Z,64.25
2022-11-28T22:44:04.159Z,57.05
2022-11-28T22:46:32.542Z,61.10
2022-11-28T22:48:59.959Z,63.60
2022-11-28T22:51:27.668Z,60.63
2022-11-28T22:53:55.154Z,59.78
2022-11-28T22:56:22.059Z,57.15
2022-11-28T22:58:48.990Z,53.65
2022-11-28T23:01:17.490Z,57.67
2022-11-28T23:03:46.553Z,56.67
2022-11-28T23:06:14.967Z,62.00
2022-11-28T23:08:41.933Z,57.35
2022-11-28T23:11:10.602Z,61.92
2022-11-28T23:13:38.376Z,61.72
2022-11-28T23:16:10.041Z,63.22
2022-11-28T23:18:36.615Z,60.55
2022-11-28T23:21:04.570Z,61.22
2022-11-28T23:23:31.479Z,53.60
2022-11-28T23:26:04.943Z,58.38
2022-11-28T23:28:32.011Z,59.35
2022-11-28T23:31:04.984Z,52.58
2022-11-28T23:33:31.894Z,55.05
2022-11-28T23:35:58.495Z,60.42
2022-11-28T23:38:26.522Z,55.03
2022-11-28T23:40:56.459Z,58.42
2022-11-28T23:43:23.289Z,54.78
2022-11-28T23:45:49.945Z,59.47
2022-11-28T23:48:16.599Z,61.38
2022-11-28T23:50:43.232Z,55.20
2022-11-28T23:53:09.877Z,55.13
2022-11-28T23:55:37.952Z,53.08
2022-11-28T23:58:04.719Z,57.15
